createdAt,value
2019-03-24T00:00:51.650Z,70.00
2019-03-24T00:03:20.338Z,68.90
2019-03-24T00:05:49.120Z,69.10
2019-03-24T00:08:17.850Z,69.10
2019-03-24T00:10:46.697Z,69.10
2019-03-24T00:13:15.264Z,69.20
2019-03-24T00:15:43.874Z,69.00
2019-03-24T00:18:12.528Z,69.40
2019-03-24T00:20:41.199Z,69.90
2019-03-24T00:23:09.817Z,69.40
2019-03-24T00:25:38.426Z,69.30
2019-03-24T00:28:07.223Z,69.90
2019-03-24T00:30:35.881Z,69.50
2019-03-24T00:33:04.623Z,69.70
2019-03-24T00:35:33.188Z,69.90
2019-03-24T00:38:01.746Z,70.10
2019-03-24T00:40:30.548Z,70.10
2019-03-24T00:42:59.177Z,69.60
2019-03-24T00:45:36.525Z,70.10
2019-03-24T00:47:58.009Z,70.50
2019-03-24T00:50:26.646Z,70.10
2019-03-24T00:52:55.447Z,70.00
2019-03-24T00:55:24.395Z,69.90
2019-03-24T00:57:53.447Z,69.80
2019-03-24T01:00:43.296Z,70.10
2019-03-24T01:03:12.098Z,70.00
2019-03-24T01:05:41.005Z,69.80
2019-03-24T01:08:09.785Z,69.60
2019-03-24T01:10:38.621Z,69.40
2019-03-24T01:13:07.201Z,70.00
2019-03-24T01:15:35.889Z,70.00
2019-03-24T01:18:04.583Z,70.10
2019-03-24T01:20:33.209Z,69.80
2019-03-24T01:23:01.869Z,69.90
2019-03-24T01:25:31.053Z,70.30
2019-03-24T01:27:59.704Z,70.40
2019-03-24T01:30:28.390Z,70.70
2019-03-24T01:32:58.181Z,71.00
2019-03-24T01:35:26.876Z,70.60
2019-03-24T01:37:55.440Z,71.30
2019-03-24T01:40:25.192Z,71.20
2019-03-24T01:42:54.001Z,71.20
2019-03-24T01:45:25.556Z,71.10
2019-03-24T01:47:54.022Z,71.00
2019-03-24T01:50:22.742Z,71.40
2019-03-24T01:52:51.276Z,71.50
2019-03-24T01:55:24.699Z,71.70
2019-03-24T01:57:53.309Z,71.50
2019-03-24T02:00:22.103Z,71.60
2019-03-24T02:02:53.433Z,71.60
2019-03-24T02:05:22.055Z,71.50
2019-03-24T02:07:50.604Z,71.90
2019-03-24T02:10:19.334Z,71.80
2019-03-24T02:12:48.077Z,71.80
2019-03-24T02:15:16.838Z,71.80
2019-03-24T02:17:45.442Z,71.80
2019-03-24T02:20:14.141Z,72.10
2019-03-24T02:22:42.790Z,72.00
2019-03-24T02:25:11.674Z,72.40
2019-03-24T02:27:40.336Z,72.40
2019-03-24T02:30:09.597Z,72.50
2019-03-24T02:32:38.431Z,72.70
2019-03-24T02:35:07.553Z,73.00
2019-03-24T02:37:36.238Z,73.20
2019-03-24T02:40:06.786Z,73.20
2019-03-24T02:42:35.385Z,73.40
2019-03-24T02:45:05.550Z,73.40
2019-03-24T02:47:34.285Z,73.30
2019-03-24T02:50:02.834Z,73.80
2019-03-24T02:52:31.391Z,73.90
2019-03-24T02:54:59.944Z,73.50
2019-03-24T02:57:28.614Z,74.00
2019-03-24T02:59:57.186Z,74.00
2019-03-24T03:02:25.719Z,73.80
2019-03-24T03:04:54.346Z,74.00
2019-03-24T03:07:23.059Z,74.40
2019-03-24T03:09:51.684Z,74.60
2019-03-24T03:12:20.309Z,74.50
2019-03-24T03:14:48.997Z,74.40
2019-03-24T03:17:17.754Z,74.40
2019-03-24T03:19:46.449Z,74.40
2019-03-24T03:22:15.059Z,74.90
2019-03-24T03:24:43.685Z,74.90
2019-03-24T03:27:14.624Z,75.50
2019-03-24T03:29:43.169Z,75.10
2019-03-24T03:32:11.710Z,75.40
2019-03-24T03:34:40.310Z,75.80
2019-03-24T03:37:08.979Z,75.40
2019-03-24T03:39:37.645Z,76.10
2019-03-24T03:42:06.310Z,76.80
2019-03-24T03:44:34.935Z,75.80
2019-03-24T03:47:03.557Z,76.20
2019-03-24T03:49:32.181Z,75.80
2019-03-24T03:52:00.787Z,76.40
2019-03-24T03:54:29.314Z,75.80
2019-03-24T03:56:57.887Z,76.00
2019-03-24T03:59:26.503Z,76.30
2019-03-24T04:01:55.134Z,76.30
2019-03-24T04:04:23.682Z,76.40
2019-03-24T04:06:52.281Z,76.20
2019-03-24T04:09:21.088Z,76.50
2019-03-24T04:11:49.666Z,76.20
2019-03-24T04:14:18.206Z,76.10
2019-03-24T04:16:46.928Z,76.00
2019-03-24T04:19:15.538Z,76.00
2019-03-24T04:21:44.164Z,76.10
2019-03-24T04:24:12.806Z,76.20
2019-03-24T04:26:41.439Z,76.20
2019-03-24T04:29:09.990Z,76.00
2019-03-24T04:31:38.546Z,76.40
2019-03-24T04:34:07.083Z,76.30
2019-03-24T04:36:35.653Z,75.90
2019-03-24T04:39:05.725Z,76.20
2019-03-24T04:41:34.291Z,76.90
2019-03-24T04:44:02.885Z,77.00
2019-03-24T04:46:31.422Z,76.80
2019-03-24T04:48:59.981Z,76.90
2019-03-24T04:51:28.569Z,76.90
2019-03-24T04:53:57.214Z,77.40
2019-03-24T04:56:25.750Z,77.10
2019-03-24T04:58:54.301Z,77.40
2019-03-24T05:01:22.928Z,77.50
2019-03-24T05:03:51.523Z,77.30
2019-03-24T05:06:20.613Z,77.30
2019-03-24T05:08:50.041Z,77.20
2019-03-24T05:11:18.656Z,76.70
2019-03-24T05:13:47.253Z,77.10
2019-03-24T05:16:15.778Z,77.60
2019-03-24T05:18:44.344Z,77.40
2019-03-24T05:21:12.951Z,78.20
2019-03-24T05:23:41.570Z,77.90
2019-03-24T05:26:10.154Z,77.80
2019-03-24T05:28:38.626Z,78.00
2019-03-24T05:31:07.194Z,78.40
2019-03-24T05:33:35.805Z,78.60
2019-03-24T05:36:04.449Z,78.80
2019-03-24T05:38:33.060Z,78.80
2019-03-24T05:41:01.629Z,78.90
2019-03-24T05:43:30.170Z,79.00
2019-03-24T05:45:58.687Z,79.00
2019-03-24T05:48:27.278Z,79.40
2019-03-24T05:50:56.044Z,79.20
2019-03-24T05:53:24.533Z,79.20
2019-03-24T05:55:53.163Z,79.20
2019-03-24T05:58:21.702Z,79.60
2019-03-24T06:00:50.339Z,78.60
2019-03-24T06:03:18.898Z,79.10
2019-03-24T06:05:47.514Z,79.00
2019-03-24T06:08:15.992Z,78.70
2019-03-24T06:10:44.527Z,78.30
2019-03-24T06:13:13.261Z,78.30
2019-03-24T06:15:41.758Z,78.40
2019-03-24T06:18:10.372Z,77.90
2019-03-24T06:20:38.949Z,77.60
2019-03-24T06:23:07.526Z,77.30
2019-03-24T06:25:36.130Z,77.00
2019-03-24T06:28:04.823Z,76.60
2019-03-24T06:30:33.447Z,76.40
2019-03-24T06:33:02.092Z,76.40
2019-03-24T06:35:30.692Z,76.50
2019-03-24T06:37:59.419Z,75.80
2019-03-24T06:40:27.986Z,75.50
2019-03-24T06:42:56.517Z,74.60
2019-03-24T06:45:28.610Z,74.00
2019-03-24T06:47:58.242Z,73.40
2019-03-24T06:50:25.744Z,73.50
2019-03-24T06:52:54.359Z,73.80
2019-03-24T06:55:23.618Z,72.50
2019-03-24T06:57:52.205Z,71.90
2019-03-24T07:00:20.844Z,71.50
2019-03-24T07:02:49.470Z,70.70
2019-03-24T07:05:18.166Z,70.90
2019-03-24T07:07:47.438Z,70.80
2019-03-24T07:10:16.138Z,70.60
2019-03-24T07:12:44.707Z,70.40
2019-03-24T07:15:13.475Z,69.10
2019-03-24T07:17:42.093Z,68.70
2019-03-24T07:20:10.993Z,68.20
2019-03-24T07:22:39.692Z,68.30
2019-03-24T07:25:08.743Z,68.10
2019-03-24T07:27:37.354Z,67.30
2019-03-24T07:30:08.027Z,66.90
2019-03-24T07:32:36.727Z,66.30
2019-03-24T07:35:07.453Z,66.10
2019-03-24T07:37:36.356Z,66.30
2019-03-24T07:40:07.446Z,66.40
2019-03-24T07:42:36.074Z,64.20
2019-03-24T07:45:07.163Z,64.50
2019-03-24T07:47:35.746Z,64.40
2019-03-24T07:50:09.231Z,63.70
2019-03-24T07:52:37.982Z,63.90
2019-03-24T07:55:07.362Z,64.30
2019-03-24T07:57:35.995Z,64.20
2019-03-24T08:00:06.385Z,63.80
2019-03-24T08:02:35.006Z,63.40
2019-03-24T08:05:04.284Z,63.10
2019-03-24T08:07:33.457Z,62.50
2019-03-24T08:10:02.113Z,63.20
2019-03-24T08:12:30.740Z,63.20
2019-03-24T08:15:00.077Z,61.90
2019-03-24T08:17:28.796Z,61.70
2019-03-24T08:19:57.654Z,61.20
2019-03-24T08:22:26.346Z,59.60
2019-03-24T08:24:54.987Z,59.10
2019-03-24T08:27:23.541Z,58.60
2019-03-24T08:29:52.183Z,56.90
2019-03-24T08:32:21.656Z,56.20
2019-03-24T08:34:51.141Z,54.50
2019-03-24T08:37:19.896Z,53.30
2019-03-24T08:39:48.485Z,53.00
2019-03-24T08:42:17.833Z,51.70
2019-03-24T08:44:46.524Z,51.00
2019-03-24T08:47:15.351Z,49.70
2019-03-24T08:49:46.795Z,49.40
2019-03-24T08:52:15.447Z,48.10
2019-03-24T08:54:44.242Z,48.40
2019-03-24T08:57:12.793Z,47.30
2019-03-24T08:59:41.393Z,47.10
2019-03-24T09:02:10.263Z,46.10
2019-03-24T09:04:38.821Z,44.10
2019-03-24T09:07:07.385Z,45.40
2019-03-24T09:09:36.202Z,43.90
2019-03-24T09:12:05.063Z,44.80
2019-03-24T09:14:33.686Z,46.40
2019-03-24T09:17:02.327Z,44.50
2019-03-24T09:19:31.182Z,42.70
2019-03-24T09:22:01.887Z,42.80
2019-03-24T09:24:30.573Z,43.20
2019-03-24T09:26:59.341Z,41.90
2019-03-24T09:29:27.854Z,42.30
2019-03-24T09:31:56.560Z,42.60
2019-03-24T09:34:25.294Z,43.60
2019-03-24T09:36:53.836Z,43.70
2019-03-24T09:39:22.940Z,41.70
2019-03-24T09:41:52.253Z,40.20
2019-03-24T09:44:21.126Z,38.70
2019-03-24T09:46:49.829Z,40.80
2019-03-24T09:49:18.534Z,39.10
2019-03-24T09:51:49.011Z,40.10
2019-03-24T09:54:17.692Z,39.10
2019-03-24T09:56:46.384Z,41.20
2019-03-24T09:59:14.962Z,39.90
2019-03-24T10:01:44.998Z,38.10
2019-03-24T10:04:13.726Z,36.50
2019-03-24T10:06:42.921Z,38.30
2019-03-24T10:09:11.562Z,37.20
2019-03-24T10:11:40.205Z,37.50
2019-03-24T10:14:09.030Z,36.90
2019-03-24T10:16:37.737Z,37.30
2019-03-24T10:19:13.930Z,36.80
2019-03-24T10:21:36.891Z,37.00
2019-03-24T10:24:07.901Z,38.00
2019-03-24T10:26:37.123Z,35.50
2019-03-24T10:29:05.967Z,35.40
2019-03-24T10:31:34.753Z,33.70
2019-03-24T10:34:03.549Z,32.40
2019-03-24T10:36:34.177Z,33.10
2019-03-24T10:39:02.537Z,32.00
2019-03-24T10:41:31.195Z,32.50
2019-03-24T10:43:59.774Z,33.00
2019-03-24T10:46:28.476Z,33.20
2019-03-24T10:48:57.899Z,32.70
2019-03-24T10:51:26.589Z,31.60
2019-03-24T10:53:55.315Z,30.70
2019-03-24T10:56:24.061Z,30.20
2019-03-24T10:58:52.944Z,31.60
2019-03-24T11:01:21.948Z,31.30
2019-03-24T11:03:50.690Z,31.60
2019-03-24T11:06:20.575Z,31.60
2019-03-24T11:08:49.282Z,31.20
2019-03-24T11:11:18.298Z,30.10
2019-03-24T11:13:46.870Z,30.40
2019-03-24T11:16:15.667Z,29.20
2019-03-24T11:18:44.980Z,28.10
2019-03-24T11:21:13.652Z,28.00
2019-03-24T11:23:42.465Z,27.20
2019-03-24T11:26:11.580Z,28.70
2019-03-24T11:28:40.875Z,29.50
2019-03-24T11:31:09.586Z,29.00
2019-03-24T11:33:38.232Z,27.70
2019-03-24T11:36:07.911Z,28.20
2019-03-24T11:38:38.075Z,27.90
2019-03-24T11:41:06.999Z,28.20
2019-03-24T11:43:35.859Z,28.20
2019-03-24T11:46:08.599Z,27.60
2019-03-24T11:48:37.336Z,26.80
2019-03-24T11:51:06.160Z,27.30
2019-03-24T11:53:34.874Z,28.70
2019-03-24T11:56:04.054Z,29.20
2019-03-24T11:58:34.435Z,28.30
2019-03-24T12:01:03.041Z,28.30
2019-03-24T12:03:32.702Z,27.90
2019-03-24T12:06:01.599Z,28.70
2019-03-24T12:08:30.359Z,28.70
2019-03-24T12:10:59.146Z,28.50
2019-03-24T12:13:27.993Z,28.50
2019-03-24T12:15:56.726Z,28.30
2019-03-24T12:18:25.312Z,28.10
2019-03-24T12:20:53.921Z,28.30
2019-03-24T12:23:22.603Z,27.80
2019-03-24T12:25:53.155Z,27.70
2019-03-24T12:28:21.695Z,27.60
2019-03-24T12:30:50.729Z,27.20
2019-03-24T12:33:19.407Z,26.90
2019-03-24T12:35:48.345Z,27.20
2019-03-24T12:38:18.458Z,26.40
2019-03-24T12:40:47.362Z,27.70
2019-03-24T12:43:27.716Z,26.90
2019-03-24T12:45:57.059Z,27.10
2019-03-24T12:48:28.260Z,26.60
2019-03-24T12:50:57.154Z,26.50
2019-03-24T12:53:26.347Z,26.60
2019-03-24T12:55:57.290Z,26.30
2019-03-24T12:58:25.963Z,26.80
2019-03-24T13:00:55.119Z,28.60
2019-03-24T13:03:23.901Z,27.60
2019-03-24T13:05:52.647Z,27.40
2019-03-24T13:08:21.266Z,27.00
2019-03-24T13:10:50.183Z,27.80
2019-03-24T13:13:18.993Z,28.10
2019-03-24T13:15:48.265Z,28.00
2019-03-24T13:18:16.961Z,27.80
2019-03-24T13:20:45.675Z,28.30
2019-03-24T13:23:14.240Z,27.80
2019-03-24T13:25:43.127Z,27.80
2019-03-24T13:28:11.755Z,27.70
2019-03-24T13:30:40.452Z,28.10
2019-03-24T13:33:09.281Z,28.10
2019-03-24T13:35:37.846Z,29.10
2019-03-24T13:38:06.583Z,27.80
2019-03-24T13:40:35.249Z,27.00
2019-03-24T13:43:03.871Z,27.10
2019-03-24T13:45:32.712Z,28.60
2019-03-24T13:48:01.422Z,28.50
2019-03-24T13:50:31.546Z,29.40
2019-03-24T13:53:00.702Z,29.80
2019-03-24T13:55:29.422Z,29.50
2019-03-24T13:57:58.124Z,30.30
2019-03-24T14:00:26.937Z,31.70
2019-03-24T14:02:55.499Z,32.70
2019-03-24T14:05:24.194Z,33.30
2019-03-24T14:07:52.827Z,34.70
2019-03-24T14:10:21.350Z,35.30
2019-03-24T14:12:49.993Z,35.70
2019-03-24T14:15:18.636Z,34.80
2019-03-24T14:17:47.387Z,35.60
2019-03-24T14:20:18.960Z,36.20
2019-03-24T14:22:47.670Z,37.30
2019-03-24T14:25:16.525Z,37.70
2019-03-24T14:27:45.212Z,38.70
2019-03-24T14:30:14.211Z,39.00
2019-03-24T14:32:42.847Z,39.60
2019-03-24T14:35:11.599Z,39.40
2019-03-24T14:37:40.352Z,38.80
2019-03-24T14:40:09.109Z,39.50
2019-03-24T14:42:37.804Z,39.90
2019-03-24T14:45:07.781Z,39.70
2019-03-24T14:47:36.785Z,39.70
2019-03-24T14:50:08.093Z,40.10
2019-03-24T14:52:36.799Z,40.70
2019-03-24T14:55:06.042Z,40.80
2019-03-24T14:57:34.552Z,41.00
2019-03-24T15:00:03.341Z,41.30
2019-03-24T15:02:31.881Z,41.20
2019-03-24T15:05:00.606Z,41.10
2019-03-24T15:07:29.249Z,41.10
2019-03-24T15:09:57.968Z,41.40
2019-03-24T15:12:34.362Z,42.00
2019-03-24T15:15:02.749Z,42.10
2019-03-24T15:20:08.222Z,42.30
2019-03-24T15:22:36.932Z,42.60
2019-03-24T15:25:06.432Z,42.40
2019-03-24T15:27:35.118Z,42.90
2019-03-24T15:30:08.078Z,42.60
2019-03-24T15:32:36.862Z,42.70
2019-03-24T15:35:06.950Z,43.10
2019-03-24T15:37:35.530Z,43.10
2019-03-24T15:40:05.474Z,42.90
2019-03-24T15:42:34.175Z,43.40
2019-03-24T15:45:02.892Z,43.60
2019-03-24T15:47:31.543Z,43.80
2019-03-24T15:50:00.328Z,43.60
2019-03-24T15:52:29.013Z,43.30
2019-03-24T15:58:29.271Z,44.10
2019-03-24T16:00:57.925Z,43.50
2019-03-24T16:03:26.539Z,43.60
2019-03-24T16:05:56.498Z,43.40
2019-03-24T16:08:25.906Z,43.60
2019-03-24T16:10:54.522Z,43.60
2019-03-24T16:13:28.666Z,43.90
2019-03-24T16:16:06.433Z,43.90
2019-03-24T16:18:37.581Z,44.40
2019-03-24T16:21:06.851Z,44.40
2019-03-24T16:23:40.328Z,44.50
2019-03-24T16:26:49.365Z,44.20
2019-03-24T16:29:18.085Z,44.30
2019-03-24T16:34:40.766Z,45.90
2019-03-24T16:37:10.997Z,45.90
2019-03-24T16:39:44.123Z,46.20
2019-03-24T16:42:14.422Z,46.30
2019-03-24T16:44:43.081Z,46.60
2019-03-24T16:47:11.674Z,46.90
2019-03-24T16:49:40.307Z,47.30
2019-03-24T16:52:26.835Z,47.80
2019-03-24T16:58:02.206Z,49.20
2019-03-24T17:00:35.400Z,48.90
2019-03-24T17:03:04.158Z,49.00
2019-03-24T17:05:34.641Z,49.60
2019-03-24T17:08:03.378Z,49.80
2019-03-24T17:16:56.914Z,49.80
2019-03-24T17:19:25.790Z,50.20
2019-03-24T17:21:54.465Z,50.70
2019-03-24T17:24:23.261Z,51.00
2019-03-24T17:27:03.579Z,51.00
2019-03-24T17:29:32.125Z,51.10
2019-03-24T17:32:03.774Z,52.10
2019-03-24T17:34:38.389Z,51.30
2019-03-24T17:37:07.136Z,51.60
2019-03-24T17:39:35.806Z,51.60
2019-03-24T17:42:04.449Z,52.40
2019-03-24T17:44:33.205Z,52.90
2019-03-24T17:47:06.421Z,52.80
2019-03-24T17:49:36.640Z,53.60
2019-03-24T17:52:06.936Z,55.40
2019-03-24T17:54:37.122Z,55.70
2019-03-24T17:57:05.762Z,56.40
2019-03-24T17:59:38.800Z,56.70
2019-03-24T18:02:14.242Z,57.10
2019-03-24T18:04:37.781Z,57.20
2019-03-24T18:07:06.653Z,57.70
2019-03-24T18:09:35.422Z,58.50
2019-03-24T18:12:04.221Z,59.10
2019-03-24T18:14:32.926Z,60.30
2019-03-24T18:17:01.630Z,61.00
2019-03-24T18:19:30.384Z,61.20
2019-03-24T18:21:58.994Z,61.60
2019-03-24T18:24:27.837Z,62.00
2019-03-24T18:26:58.103Z,62.80
2019-03-24T18:29:28.796Z,63.30
2019-03-24T18:31:58.840Z,63.40
2019-03-24T18:34:27.340Z,63.60
2019-03-24T18:36:55.990Z,64.30
2019-03-24T18:42:41.166Z,65.60
2019-03-24T18:45:12.997Z,66.00
2019-03-24T18:48:15.000Z,66.20
2019-03-24T18:51:29.872Z,66.70
2019-03-24T18:57:11.126Z,67.00
2019-03-24T18:59:54.929Z,66.50
2019-03-24T19:02:25.577Z,66.30
2019-03-24T19:11:38.182Z,66.00
2019-03-24T19:14:24.398Z,64.90
2019-03-24T19:16:58.981Z,64.70
2019-03-24T19:19:29.809Z,65.00
2019-03-24T19:25:20.712Z,64.90
2019-03-24T19:28:42.669Z,64.60
2019-03-24T19:31:45.943Z,64.70
2019-03-24T19:34:06.231Z,64.60
2019-03-24T19:36:36.304Z,64.90
2019-03-24T19:39:09.281Z,65.00
2019-03-24T19:44:58.417Z,65.10
2019-03-24T19:47:27.308Z,65.60
2019-03-24T19:49:56.809Z,65.60
2019-03-24T19:52:25.455Z,65.90
2019-03-24T19:54:54.720Z,66.20
2019-03-24T19:57:23.544Z,66.30
2019-03-24T19:59:52.290Z,66.50
2019-03-24T20:02:21.193Z,66.70
2019-03-24T20:04:52.591Z,67.20
2019-03-24T20:17:06.193Z,68.90
2019-03-24T20:19:34.781Z,69.70
2019-03-24T20:22:03.489Z,69.90
2019-03-24T20:24:34.993Z,70.40
2019-03-24T20:27:04.451Z,69.70
2019-03-24T20:29:34.149Z,69.70
2019-03-24T20:32:02.809Z,70.30
2019-03-24T20:34:31.681Z,71.00
2019-03-24T20:37:00.188Z,71.40
2019-03-24T20:39:28.989Z,71.90
2019-03-24T20:41:58.709Z,72.50
2019-03-24T20:44:27.346Z,72.60
2019-03-24T20:46:56.298Z,72.90
2019-03-24T20:49:24.966Z,73.40
2019-03-24T20:51:54.043Z,73.30
2019-03-24T20:54:22.745Z,73.60
2019-03-24T20:56:51.578Z,74.40
2019-03-24T20:59:20.452Z,73.70
2019-03-24T21:01:49.161Z,74.00
2019-03-24T21:04:20.341Z,74.00
2019-03-24T21:06:50.199Z,74.20
2019-03-24T21:09:22.297Z,74.30
2019-03-24T21:11:51.837Z,74.50
2019-03-24T21:14:21.804Z,74.50
2019-03-24T21:16:51.662Z,74.70
2019-03-24T21:19:22.045Z,74.80
2019-03-24T21:21:51.489Z,74.90
2019-03-24T21:24:24.070Z,75.00
2019-03-24T21:26:54.293Z,75.00
2019-03-24T21:29:24.111Z,75.20
2019-03-24T21:31:55.185Z,74.80
2019-03-24T21:34:24.825Z,74.90
2019-03-24T21:36:57.254Z,74.70
2019-03-24T21:39:26.703Z,74.60
2019-03-24T21:41:55.964Z,74.90
2019-03-24T21:44:24.881Z,75.20
2019-03-24T21:46:56.232Z,75.50
2019-03-24T21:49:26.370Z,75.70
2019-03-24T21:51:55.987Z,75.90
2019-03-24T21:54:25.318Z,75.70
2019-03-24T21:56:54.627Z,76.30
2019-03-24T21:59:24.118Z,76.60
2019-03-24T22:01:55.211Z,76.50
2019-03-24T22:04:25.006Z,76.90
2019-03-24T22:06:55.074Z,77.20
2019-03-24T22:09:28.640Z,77.20
2019-03-24T22:11:58.011Z,77.20
2019-03-24T22:14:29.849Z,77.60
2019-03-24T22:17:00.704Z,77.60
2019-03-24T22:23:11.675Z,77.50
2019-03-24T22:28:51.472Z,77.40
2019-03-24T22:44:49.819Z,77.80
2019-03-24T22:53:31.177Z,79.10
2019-03-24T22:56:02.024Z,78.50
2019-03-24T22:58:37.216Z,78.40
2019-03-24T23:01:33.260Z,78.80
2019-03-24T23:18:37.798Z,79.90
